Time;durP1;ratioP1;P1;durP2;ratioP2;P2;SDS_P1;SDS_P2;PMS_P1;PMS_P2;Temp;Humidity;BMP_temperature;BMP_pressure;BME280_temperature;BME280_humidity;BME280_pressure;Samples;Min_cycle;Max_cycle;Signal;HPM_P1;HPM_P2
2023/02/04 00:00:48;;;;;;;3.17;1.15;;;;;;;;;;4999050;28;20053;-66
2023/02/04 00:03:18;;;;;;;4.05;1.38;;;;;;;;;;5069933;28;20055;-67
2023/02/04 00:05:48;;;;;;;3.60;1.67;;;;;;;;;;5091171;28;20447;-66
2023/02/04 00:08:18;;;;;;;3.15;1.58;;;;;;;;;;5040572;28;20051;-67
2023/02/04 00:10:48;;;;;;;4.63;1.13;;;;;;;;;;5057332;28;20059;-68
2023/02/04 00:13:19;;;;;;;3.53;1.50;;;;;;;;;;5057573;28;20067;-67
2023/02/04 00:15:49;;;;;;;2.70;1.05;;;;;;;;;;5090750;28;20424;-67
2023/02/04 00:18:19;;;;;;;2.97;1.08;;;;;;;;;;5057486;28;20064;-67
2023/02/04 00:20:49;;;;;;;2.10;1.48;;;;;;;;;;5056873;28;20048;-65
2023/02/04 00:23:19;;;;;;;3.60;1.45;;;;;;;;;;5091907;28;20082;-65
2023/02/04 00:25:50;;;;;;;3.90;1.10;;;;;;;;;;5074005;28;20067;-67
2023/02/04 00:28:20;;;;;;;2.95;1.23;;;;;;;;;;5070240;28;20049;-67
2023/02/04 00:30:50;;;;;;;2.97;1.30;;;;;;;;;;5049472;28;20425;-67
2023/02/04 00:33:20;;;;;;;4.43;1.30;;;;;;;;;;5050045;28;20053;-67
2023/02/04 00:35:50;;;;;;;4.32;1.20;;;;;;;;;;5050077;28;20049;-67
2023/02/04 00:38:21;;;;;;;2.00;1.10;;;;;;;;;;5066687;28;20056;-66
2023/02/04 00:40:52;;;;;;;4.65;1.30;;;;;;;;;;5016518;28;20049;-68
2023/02/04 00:43:23;;;;;;;4.68;1.02;;;;;;;;;;5016925;28;20392;-67
2023/02/04 00:45:54;;;;;;;1.90;0.90;;;;;;;;;;5050041;28;20076;-65
2023/02/04 00:48:25;;;;;;;2.33;1.10;;;;;;;;;;5000917;28;20559;-65
2023/02/04 00:50:56;;;;;;;1.98;1.00;;;;;;;;;;5049667;28;20433;-65
2023/02/04 00:53:26;;;;;;;4.75;1.20;;;;;;;;;;5050106;28;20061;-65
2023/02/04 00:55:57;;;;;;;2.97;1.13;;;;;;;;;;5009954;28;20089;-65
2023/02/04 00:58:28;;;;;;;3.55;0.95;;;;;;;;;;4957979;28;20054;-65
2023/02/04 01:00:59;;;;;;;2.00;1.10;;;;;;;;;;4990464;28;20065;-66
2023/02/04 01:03:30;;;;;;;2.38;1.50;;;;;;;;;;4990339;28;20073;-66
2023/02/04 01:06:02;;;;;;;2.13;1.02;;;;;;;;;;4961584;28;20058;-66
2023/02/04 01:08:32;;;;;;;5.15;1.20;;;;;;;;;;4971111;28;20054;-66
2023/02/04 01:11:02;;;;;;;3.72;1.02;;;;;;;;;;4970870;28;20176;-66
2023/02/04 01:13:33;;;;;;;2.88;1.10;;;;;;;;;;4987204;28;20062;-66
2023/02/04 01:16:03;;;;;;;2.20;1.35;;;;;;;;;;4970688;28;20066;-66
2023/02/04 01:18:33;;;;;;;2.47;1.02;;;;;;;;;;4951421;28;20047;-66
2023/02/04 01:21:03;;;;;;;2.92;1.25;;;;;;;;;;4951596;28;20055;-65
2023/02/04 01:23:33;;;;;;;4.15;1.40;;;;;;;;;;4951516;28;20074;-65
2023/02/04 01:26:04;;;;;;;3.45;1.02;;;;;;;;;;4951132;28;20066;-65
2023/02/04 01:28:34;;;;;;;3.40;1.33;;;;;;;;;;4966973;28;20070;-65
2023/02/04 01:31:04;;;;;;;4.43;1.30;;;;;;;;;;4951237;28;20392;-65
2023/02/04 01:33:34;;;;;;;3.08;1.27;;;;;;;;;;4970218;28;20110;-65
2023/02/04 01:36:04;;;;;;;6.15;1.40;;;;;;;;;;4989864;28;20050;-65
2023/02/04 01:38:36;;;;;;;6.10;1.55;;;;;;;;;;4989897;28;20054;-66
2023/02/04 01:41:06;;;;;;;2.63;1.20;;;;;;;;;;4998859;28;20053;-65
2023/02/04 01:43:36;;;;;;;4.78;1.30;;;;;;;;;;5037586;28;20064;-65
2023/02/04 01:46:06;;;;;;;3.55;1.63;;;;;;;;;;5069157;28;20162;-65
2023/02/04 01:48:37;;;;;;;2.83;1.60;;;;;;;;;;5069074;28;20044;-65
2023/02/04 01:51:10;;;;;;;3.58;1.52;;;;;;;;;;5068908;28;20048;-65
2023/02/04 01:53:42;;;;;;;4.88;1.60;;;;;;;;;;5020224;28;20532;-65
2023/02/04 01:56:25;;;;;;;6.00;1.60;;;;;;;;;;5069032;28;20548;-65
2023/02/04 01:58:57;;;;;;;4.05;1.77;;;;;;;;;;5068794;28;20052;-65
2023/02/04 02:01:43;;;;;;;2.85;1.60;;;;;;;;;;5068837;28;20056;-65
2023/02/04 02:04:17;;;;;;;4.15;1.50;;;;;;;;;;5019301;28;20060;-65
2023/02/04 02:06:56;;;;;;;5.63;1.70;;;;;;;;;;5048711;28;20048;-65
2023/02/04 02:09:26;;;;;;;5.30;1.60;;;;;;;;;;5048793;28;20060;-66
2023/02/04 02:11:57;;;;;;;6.30;1.70;;;;;;;;;;5032399;28;20053;-66
2023/02/04 02:14:28;;;;;;;3.55;1.75;;;;;;;;;;5032610;28;20064;-66
2023/02/04 02:16:58;;;;;;;7.03;1.80;;;;;;;;;;4999356;28;20053;-66
2023/02/04 02:19:34;;;;;;;4.32;1.77;;;;;;;;;;5048650;28;20053;-66
2023/02/04 02:22:12;;;;;;;7.65;1.83;;;;;;;;;;4999137;28;20061;-66
2023/02/04 02:24:42;;;;;;;3.05;1.63;;;;;;;;;;5048202;28;20060;-65
2023/02/04 02:27:12;;;;;;;5.95;1.95;;;;;;;;;;5048733;28;20049;-66
2023/02/04 02:29:43;;;;;;;6.85;1.90;;;;;;;;;;4999424;28;20049;-66
2023/02/04 02:32:14;;;;;;;3.65;1.95;;;;;;;;;;5045710;28;20045;-66
2023/02/04 02:34:46;;;;;;;5.93;2.10;;;;;;;;;;4976561;28;20086;-66
2023/02/04 02:37:16;;;;;;;5.18;1.88;;;;;;;;;;5008887;28;20069;-66
2023/02/04 02:39:46;;;;;;;6.13;1.70;;;;;;;;;;5008868;28;20074;-66
2023/02/04 02:42:18;;;;;;;5.57;1.73;;;;;;;;;;4976373;28;20061;-66
2023/02/04 02:44:49;;;;;;;6.40;1.90;;;;;;;;;;5009120;28;20422;-66
2023/02/04 02:47:22;;;;;;;6.13;2.25;;;;;;;;;;4902813;28;20058;-66
2023/02/04 02:49:53;;;;;;;5.55;2.60;;;;;;;;;;4950578;28;20411;-66
2023/02/04 02:52:23;;;;;;;5.05;2.20;;;;;;;;;;4950626;28;20055;-66
2023/02/04 02:54:56;;;;;;;5.85;2.20;;;;;;;;;;4915950;29;20060;-66
2023/02/04 02:57:27;;;;;;;6.03;3.95;;;;;;;;;;4915654;29;20657;-66
2023/02/04 03:00:00;;;;;;;5.72;2.17;;;;;;;;;;4881348;29;20529;-66
2023/02/04 03:02:30;;;;;;;7.13;2.22;;;;;;;;;;4896745;29;20060;-66
2023/02/04 03:05:00;;;;;;;5.00;2.72;;;;;;;;;;4899165;29;20161;-66
2023/02/04 03:07:32;;;;;;;5.13;2.13;;;;;;;;;;4877257;29;20069;-66
2023/02/04 03:10:03;;;;;;;10.57;2.40;;;;;;;;;;4880941;29;20060;-67
2023/02/04 03:12:34;;;;;;;4.13;2.13;;;;;;;;;;4880544;29;20052;-67
2023/02/04 03:15:05;;;;;;;4.47;2.30;;;;;;;;;;4874482;29;20065;-66
2023/02/04 03:17:35;;;;;;;5.43;2.35;;;;;;;;;;4844127;29;20499;-66
2023/02/04 03:20:07;;;;;;;5.18;1.90;;;;;;;;;;4877765;29;20127;-66
2023/02/04 03:22:37;;;;;;;8.98;2.28;;;;;;;;;;4846688;29;20591;-67
2023/02/04 03:25:08;;;;;;;11.75;2.33;;;;;;;;;;4876378;29;20048;-66
2023/02/04 03:27:38;;;;;;;7.88;2.72;;;;;;;;;;4915265;29;20063;-66
2023/02/04 03:30:09;;;;;;;7.72;2.95;;;;;;;;;;4934217;29;20054;-66
2023/02/04 03:32:40;;;;;;;7.38;2.45;;;;;;;;;;4902555;29;20071;-67
2023/02/04 03:35:10;;;;;;;6.18;2.42;;;;;;;;;;4932867;29;20059;-67
2023/02/04 03:37:40;;;;;;;5.72;2.35;;;;;;;;;;4933899;29;20133;-67
2023/02/04 03:40:11;;;;;;;4.97;2.50;;;;;;;;;;4943760;28;20063;-67
2023/02/04 03:42:41;;;;;;;11.23;2.60;;;;;;;;;;4952986;28;20051;-67
2023/02/04 03:45:11;;;;;;;9.13;2.80;;;;;;;;;;4953305;28;20070;-66
2023/02/04 03:47:41;;;;;;;5.43;2.78;;;;;;;;;;4953071;28;20066;-66
2023/02/04 03:50:13;;;;;;;6.57;2.63;;;;;;;;;;4921398;29;20524;-66
2023/02/04 03:52:43;;;;;;;12.68;2.50;;;;;;;;;;4962318;28;20065;-67
2023/02/04 03:55:13;;;;;;;9.13;2.83;;;;;;;;;;4956552;28;20062;-67
2023/02/04 03:57:43;;;;;;;11.45;2.33;;;;;;;;;;4981656;28;20058;-66
2023/02/04 04:00:14;;;;;;;6.80;2.30;;;;;;;;;;5010318;28;20100;-67
2023/02/04 04:02:44;;;;;;;9.18;2.40;;;;;;;;;;5030901;28;20114;-66
2023/02/04 04:05:14;;;;;;;7.93;2.70;;;;;;;;;;5030309;28;20052;-67
2023/02/04 04:07:45;;;;;;;7.93;2.63;;;;;;;;;;5007107;28;20064;-67
2023/02/04 04:10:15;;;;;;;4.28;2.33;;;;;;;;;;5050993;28;21108;-66
2023/02/04 04:12:45;;;;;;;6.15;2.55;;;;;;;;;;5051277;28;20049;-65
2023/02/04 04:15:15;;;;;;;5.90;2.50;;;;;;;;;;5017099;28;20508;-64
2023/02/04 04:17:47;;;;;;;8.57;2.47;;;;;;;;;;5073077;28;20044;-64
2023/02/04 04:20:17;;;;;;;5.90;2.22;;;;;;;;;;5054512;28;20428;-64
2023/02/04 04:22:47;;;;;;;6.20;2.38;;;;;;;;;;5070875;28;20056;-64
2023/02/04 04:25:17;;;;;;;5.88;2.33;;;;;;;;;;5059317;28;20110;-63
2023/02/04 04:27:47;;;;;;;5.38;2.30;;;;;;;;;;5092880;28;20036;-64
2023/02/04 04:30:18;;;;;;;5.20;2.28;;;;;;;;;;5093211;28;20051;-64
2023/02/04 04:32:48;;;;;;;7.32;2.50;;;;;;;;;;5092782;28;20037;-64
2023/02/04 04:35:19;;;;;;;7.20;2.65;;;;;;;;;;5093057;28;20617;-64
2023/02/04 04:37:49;;;;;;;6.78;1.98;;;;;;;;;;5074163;28;20059;-64
2023/02/04 04:40:19;;;;;;;5.13;2.15;;;;;;;;;;5090658;28;20048;-64
2023/02/04 04:42:49;;;;;;;11.40;3.00;;;;;;;;;;5073844;28;20052;-64
2023/02/04 04:45:20;;;;;;;14.75;2.22;;;;;;;;;;5057432;28;20056;-64
2023/02/04 04:47:50;;;;;;;4.63;2.42;;;;;;;;;;5090494;28;20055;-64
2023/02/04 04:50:20;;;;;;;11.57;2.28;;;;;;;;;;5057264;28;20056;-64
2023/02/04 04:52:50;;;;;;;3.65;1.95;;;;;;;;;;5091573;28;20055;-64
2023/02/04 04:55:20;;;;;;;3.92;2.10;;;;;;;;;;5073603;28;20519;-64
2023/02/04 04:57:51;;;;;;;6.88;2.33;;;;;;;;;;5092643;28;20044;-64
2023/02/04 05:00:21;;;;;;;3.70;2.15;;;;;;;;;;5092504;28;20044;-64
2023/02/04 05:02:51;;;;;;;6.85;2.00;;;;;;;;;;5057309;28;20052;-64
2023/02/04 05:05:21;;;;;;;3.97;2.00;;;;;;;;;;5056613;28;20165;-64
2023/02/04 05:07:52;;;;;;;5.18;2.03;;;;;;;;;;5037035;28;20409;-64
2023/02/04 05:10:22;;;;;;;4.82;2.03;;;;;;;;;;5069803;28;20064;-64
2023/02/04 05:12:52;;;;;;;3.40;1.80;;;;;;;;;;5036184;28;20053;-64
2023/02/04 05:15:22;;;;;;;5.20;2.22;;;;;;;;;;5069427;28;20041;-64
2023/02/04 05:17:52;;;;;;;7.60;2.30;;;;;;;;;;5069778;28;20111;-64
2023/02/04 05:20:22;;;;;;;6.75;2.15;;;;;;;;;;5069319;28;20079;-64
2023/02/04 05:22:54;;;;;;;5.97;2.13;;;;;;;;;;5069574;28;20047;-64
2023/02/04 05:25:24;;;;;;;4.53;2.10;;;;;;;;;;5019399;28;20060;-64
2023/02/04 05:27:54;;;;;;;6.80;2.08;;;;;;;;;;5036383;28;20207;-64
2023/02/04 05:30:24;;;;;;;4.50;2.58;;;;;;;;;;5036553;28;20447;-64
2023/02/04 05:32:55;;;;;;;7.50;2.20;;;;;;;;;;5069160;28;20068;-64
2023/02/04 05:35:25;;;;;;;4.85;2.15;;;;;;;;;;5052385;28;20067;-63
2023/02/04 05:37:55;;;;;;;5.25;1.88;;;;;;;;;;5069084;28;20547;-64
2023/02/04 05:40:25;;;;;;;5.95;2.33;;;;;;;;;;5035318;28;20064;-64
2023/02/04 05:42:55;;;;;;;13.77;2.67;;;;;;;;;;5069602;28;20071;-64
2023/02/04 05:45:25;;;;;;;6.63;2.30;;;;;;;;;;5068758;28;20044;-64
2023/02/04 05:47:55;;;;;;;5.03;2.25;;;;;;;;;;5072771;28;20052;-64
2023/02/04 05:50:25;;;;;;;8.18;2.40;;;;;;;;;;5072702;28;20067;-64
2023/02/04 05:53:09;;;;;;;4.65;2.20;;;;;;;;;;5055855;28;20056;-64
2023/02/04 05:55:40;;;;;;;7.20;2.28;;;;;;;;;;5089873;28;20052;-64
2023/02/04 05:58:10;;;;;;;9.00;2.63;;;;;;;;;;5072607;28;20060;-64
2023/02/04 06:00:40;;;;;;;4.65;2.35;;;;;;;;;;5091493;28;20051;-65
2023/02/04 06:03:10;;;;;;;11.45;2.70;;;;;;;;;;5072749;28;20512;-65
2023/02/04 06:05:40;;;;;;;8.85;2.53;;;;;;;;;;5091328;28;20039;-65
2023/02/04 06:08:10;;;;;;;6.90;2.17;;;;;;;;;;5072651;28;20056;-65
2023/02/04 06:10:40;;;;;;;8.07;2.53;;;;;;;;;;5091440;28;20044;-65
2023/02/04 06:13:10;;;;;;;6.10;2.40;;;;;;;;;;5091286;28;20044;-65
2023/02/04 06:15:41;;;;;;;6.63;2.50;;;;;;;;;;5091415;28;20051;-65
2023/02/04 06:18:11;;;;;;;9.52;2.42;;;;;;;;;;5091267;28;20049;-65
2023/02/04 06:20:41;;;;;;;5.15;2.60;;;;;;;;;;5090251;28;20044;-65
2023/02/04 06:23:11;;;;;;;6.35;2.78;;;;;;;;;;5055462;28;20063;-65
2023/02/04 06:25:41;;;;;;;5.40;2.33;;;;;;;;;;5099598;28;20040;-65
2023/02/04 06:28:10;;;;;;;12.23;3.25;;;;;;;;;;5069910;28;20400;-65
2023/02/04 06:30:42;;;;;;;8.30;2.95;;;;;;;;;;5072459;28;20060;-65
2023/02/04 06:33:13;;;;;;;10.65;2.95;;;;;;;;;;5006420;28;20089;-65
2023/02/04 06:35:43;;;;;;;22.08;2.90;;;;;;;;;;5056389;28;20060;-65
2023/02/04 06:38:13;;;;;;;6.93;2.97;;;;;;;;;;5072515;28;20048;-65
2023/02/04 06:40:43;;;;;;;8.65;2.75;;;;;;;;;;5072345;28;20072;-65
2023/02/04 06:43:13;;;;;;;14.85;2.65;;;;;;;;;;5052257;28;20049;-66
2023/02/04 06:45:43;;;;;;;13.20;2.55;;;;;;;;;;5052179;28;20464;-65
2023/02/04 06:48:13;;;;;;;9.60;3.13;;;;;;;;;;5052485;28;20064;-65
2023/02/04 06:50:44;;;;;;;7.70;2.63;;;;;;;;;;5052093;28;20044;-65
2023/02/04 06:53:14;;;;;;;11.52;2.70;;;;;;;;;;5052352;28;20576;-65
2023/02/04 06:55:44;;;;;;;12.35;3.13;;;;;;;;;;5018892;28;20056;-65
2023/02/04 06:58:14;;;;;;;6.53;2.40;;;;;;;;;;5052362;28;20049;-65
2023/02/04 07:00:44;;;;;;;9.38;2.85;;;;;;;;;;5003233;28;20056;-65
2023/02/04 07:03:14;;;;;;;5.88;2.45;;;;;;;;;;4970179;28;20489;-65
2023/02/04 07:05:44;;;;;;;6.70;2.60;;;;;;;;;;5031903;28;20048;-65
2023/02/04 07:08:14;;;;;;;9.18;2.65;;;;;;;;;;5058730;28;20102;-65
2023/02/04 07:10:44;;;;;;;9.20;2.45;;;;;;;;;;5092496;28;20048;-65
2023/02/04 07:13:14;;;;;;;5.63;2.40;;;;;;;;;;5092105;28;20055;-66
2023/02/04 07:15:45;;;;;;;10.80;3.15;;;;;;;;;;5092261;28;20507;-66
2023/02/04 07:18:15;;;;;;;7.75;2.55;;;;;;;;;;5075106;28;20056;-66
2023/02/04 07:20:45;;;;;;;7.15;2.45;;;;;;;;;;5102771;28;20503;-66
2023/02/04 07:23:15;;;;;;;11.55;2.88;;;;;;;;;;5114907;28;20051;-65
2023/02/04 07:25:45;;;;;;;7.60;2.50;;;;;;;;;;5018074;28;20056;-66
2023/02/04 07:28:15;;;;;;;5.00;2.85;;;;;;;;;;5031370;28;20608;-65
2023/02/04 07:30:45;;;;;;;4.63;2.50;;;;;;;;;;5031650;28;20449;-65
2023/02/04 07:33:16;;;;;;;5.47;2.40;;;;;;;;;;5031601;28;20084;-66
2023/02/04 07:35:46;;;;;;;5.70;2.58;;;;;;;;;;5031532;28;20053;-66
2023/02/04 07:38:17;;;;;;;7.20;2.20;;;;;;;;;;5031831;28;20064;-65
2023/02/04 07:40:47;;;;;;;5.07;2.08;;;;;;;;;;4981304;28;20061;-66
2023/02/04 07:43:17;;;;;;;3.65;2.03;;;;;;;;;;4998565;28;20057;-66
2023/02/04 07:45:47;;;;;;;4.15;2.25;;;;;;;;;;4982316;28;20171;-66
2023/02/04 07:48:17;;;;;;;4.13;2.05;;;;;;;;;;5031442;28;20045;-65
2023/02/04 07:50:47;;;;;;;5.47;2.10;;;;;;;;;;5031383;28;20057;-65
2023/02/04 07:53:18;;;;;;;5.28;2.45;;;;;;;;;;5031094;28;20049;-65
2023/02/04 07:55:48;;;;;;;4.60;2.53;;;;;;;;;;5031100;28;20601;-65
2023/02/04 07:58:18;;;;;;;6.80;2.70;;;;;;;;;;5031030;28;20056;-65
2023/02/04 08:00:48;;;;;;;5.95;2.92;;;;;;;;;;5031119;28;20386;-65
2023/02/04 08:03:18;;;;;;;4.78;2.65;;;;;;;;;;5049643;28;20061;-65
2023/02/04 08:05:48;;;;;;;4.90;2.50;;;;;;;;;;5091284;28;20056;-65
2023/02/04 08:08:19;;;;;;;4.78;2.72;;;;;;;;;;5113704;28;20035;-64
2023/02/04 08:10:49;;;;;;;6.85;2.47;;;;;;;;;;5078474;28;20058;-65
2023/02/04 08:13:19;;;;;;;5.68;2.35;;;;;;;;;;5113897;28;20051;-65
2023/02/04 08:15:49;;;;;;;4.75;2.45;;;;;;;;;;5113681;28;20036;-65
2023/02/04 08:18:19;;;;;;;5.05;2.83;;;;;;;;;;5113738;28;20051;-65
2023/02/04 08:20:49;;;;;;;4.68;2.75;;;;;;;;;;5113830;28;20047;-66
2023/02/04 08:23:19;;;;;;;4.93;2.47;;;;;;;;;;5113460;28;20490;-66
2023/02/04 08:25:49;;;;;;;7.00;3.00;;;;;;;;;;5091886;28;20052;-66
2023/02/04 08:28:19;;;;;;;6.47;2.78;;;;;;;;;;5093152;28;20514;-66
2023/02/04 08:30:49;;;;;;;5.20;2.85;;;;;;;;;;5093202;28;20040;-66
2023/02/04 08:33:21;;;;;;;5.00;2.83;;;;;;;;;;5057108;28;20514;-66
2023/02/04 08:35:51;;;;;;;4.80;2.83;;;;;;;;;;5090821;28;20070;-66
2023/02/04 08:38:21;;;;;;;5.40;2.63;;;;;;;;;;5093146;28;20472;-66
2023/02/04 08:40:51;;;;;;;4.80;2.85;;;;;;;;;;5093081;28;20487;-67
2023/02/04 08:43:21;;;;;;;5.30;2.67;;;;;;;;;;5092851;28;20048;-66
2023/02/04 08:45:52;;;;;;;6.18;2.80;;;;;;;;;;5092716;28;20052;-66
2023/02/04 08:48:22;;;;;;;5.90;3.30;;;;;;;;;;5073752;28;20060;-66
2023/02/04 08:50:52;;;;;;;5.65;3.15;;;;;;;;;;5091265;28;20055;-66
2023/02/04 08:53:22;;;;;;;5.40;2.88;;;;;;;;;;5073634;28;20055;-66
2023/02/04 08:55:52;;;;;;;6.93;3.15;;;;;;;;;;5092499;28;20403;-66
2023/02/04 08:58:22;;;;;;;9.75;3.10;;;;;;;;;;5092524;28;20040;-66
2023/02/04 09:00:52;;;;;;;6.03;3.40;;;;;;;;;;5057662;28;20060;-66
2023/02/04 09:03:22;;;;;;;7.05;3.63;;;;;;;;;;5073612;28;20749;-66
2023/02/04 09:05:55;;;;;;;8.38;4.65;;;;;;;;;;5057713;28;20052;-66
2023/02/04 09:08:25;;;;;;;7.63;3.92;;;;;;;;;;5023426;28;20052;-66
2023/02/04 09:10:55;;;;;;;8.57;3.88;;;;;;;;;;5057522;28;20059;-66
2023/02/04 09:13:25;;;;;;;6.18;3.33;;;;;;;;;;5056626;28;20052;-66
2023/02/04 09:15:57;;;;;;;9.05;3.72;;;;;;;;;;5091208;28;20036;-66
2023/02/04 09:18:29;;;;;;;7.03;3.45;;;;;;;;;;5092091;28;20048;-66
2023/02/04 09:20:59;;;;;;;6.63;3.30;;;;;;;;;;5092215;28;20052;-66
2023/02/04 09:23:29;;;;;;;7.25;3.55;;;;;;;;;;5072911;28;20066;-66
2023/02/04 09:26:00;;;;;;;9.75;4.40;;;;;;;;;;5100874;28;20051;-66
2023/02/04 09:28:30;;;;;;;9.30;4.22;;;;;;;;;;5112761;28;20039;-66
2023/02/04 09:31:03;;;;;;;9.20;3.80;;;;;;;;;;5059540;28;20714;-66
2023/02/04 09:33:34;;;;;;;9.02;4.10;;;;;;;;;;5112479;28;20050;-66
2023/02/04 09:36:04;;;;;;;10.23;4.50;;;;;;;;;;5112200;28;20047;-66
2023/02/04 09:38:37;;;;;;;8.35;4.25;;;;;;;;;;5112601;28;20051;-66
2023/02/04 09:41:10;;;;;;;10.18;4.88;;;;;;;;;;5075969;28;20063;-66
2023/02/04 09:43:44;;;;;;;9.15;4.60;;;;;;;;;;5068899;28;20160;-66
2023/02/04 09:46:22;;;;;;;10.73;4.68;;;;;;;;;;5068969;28;20061;-66
2023/02/04 09:48:52;;;;;;;9.35;4.20;;;;;;;;;;5069254;28;20056;-66
2023/02/04 09:51:26;;;;;;;9.75;4.80;;;;;;;;;;5035979;28;20068;-66
2023/02/04 09:54:08;;;;;;;11.30;4.32;;;;;;;;;;5069124;28;20063;-66
2023/02/04 09:56:39;;;;;;;12.25;4.55;;;;;;;;;;5002572;28;20060;-66
2023/02/04 09:59:23;;;;;;;10.75;4.57;;;;;;;;;;5052528;28;20077;-66
2023/02/04 10:02:00;;;;;;;8.98;4.65;;;;;;;;;;5068896;28;20056;-66
2023/02/04 10:04:30;;;;;;;11.55;5.32;;;;;;;;;;5068644;28;20060;-66
2023/02/04 10:07:02;;;;;;;13.75;5.05;;;;;;;;;;5052212;28;20156;-66
2023/02/04 10:09:32;;;;;;;10.45;5.00;;;;;;;;;;5069110;28;20060;-66
2023/02/04 10:12:02;;;;;;;12.98;5.80;;;;;;;;;;5068862;28;20045;-66
2023/02/04 10:14:32;;;;;;;14.52;5.82;;;;;;;;;;5068773;28;20052;-66
2023/02/04 10:17:03;;;;;;;14.30;5.18;;;;;;;;;;5068876;28;20384;-66
2023/02/04 10:19:33;;;;;;;14.43;5.82;;;;;;;;;;5036085;28;20064;-63
2023/02/04 10:22:10;;;;;;;16.02;5.50;;;;;;;;;;5056685;28;20113;-64
2023/02/04 10:24:40;;;;;;;9.75;5.22;;;;;;;;;;5111595;28;20043;-65
2023/02/04 10:27:14;;;;;;;11.45;4.95;;;;;;;;;;5058763;28;20052;-65
2023/02/04 10:30:05;;;;;;;9.95;5.10;;;;;;;;;;5111473;28;20044;-65
2023/02/04 10:32:35;;;;;;;11.23;5.45;;;;;;;;;;5111440;28;20039;-65
2023/02/04 10:35:05;;;;;;;13.23;5.88;;;;;;;;;;5111588;28;20043;-65
2023/02/04 10:37:35;;;;;;;10.90;4.63;;;;;;;;;;5059220;28;20052;-65
2023/02/04 10:40:06;;;;;;;11.25;4.80;;;;;;;;;;5059145;28;20060;-65
2023/02/04 10:42:36;;;;;;;10.27;6.22;;;;;;;;;;5111796;28;20395;-65
2023/02/04 10:45:20;;;;;;;10.00;5.20;;;;;;;;;;5111466;28;20541;-65
2023/02/04 10:47:53;;;;;;;10.25;5.30;;;;;;;;;;5076909;28;20491;-65
2023/02/04 10:50:26;;;;;;;16.27;5.50;;;;;;;;;;5076019;28;20060;-65
2023/02/04 10:55:50;;;;;;;13.93;5.85;;;;;;;;;;5034910;28;20084;-65
2023/02/04 10:58:27;;;;;;;9.02;4.63;;;;;;;;;;5068388;28;20052;-65
2023/02/04 11:00:57;;;;;;;10.20;5.57;;;;;;;;;;5068463;28;20056;-65
2023/02/04 11:03:32;;;;;;;9.43;5.03;;;;;;;;;;5068465;28;20049;-66
2023/02/04 11:06:06;;;;;;;10.55;5.05;;;;;;;;;;5068628;28;20515;-65
2023/02/04 11:08:39;;;;;;;11.13;5.22;;;;;;;;;;5068326;28;20064;-65
2023/02/04 11:11:17;;;;;;;11.15;4.82;;;;;;;;;;5068469;28;20056;-65
2023/02/04 11:13:50;;;;;;;9.10;4.55;;;;;;;;;;5068606;28;20530;-65
2023/02/04 11:16:24;;;;;;;11.32;4.68;;;;;;;;;;5038901;28;20165;-66
2023/02/04 11:19:03;;;;;;;11.52;5.15;;;;;;;;;;5071822;28;20405;-65
2023/02/04 11:21:33;;;;;;;7.78;4.22;;;;;;;;;;5071967;28;20543;-64
2023/02/04 11:24:06;;;;;;;7.95;4.22;;;;;;;;;;5071736;28;20056;-65
2023/02/04 11:26:39;;;;;;;8.77;4.72;;;;;;;;;;5071517;28;20059;-65
2023/02/04 11:29:33;;;;;;;8.18;4.60;;;;;;;;;;5071432;28;20177;-65
2023/02/04 11:32:23;;;;;;;10.38;5.03;;;;;;;;;;5073106;28;20400;-65
2023/02/04 11:35:06;;;;;;;7.53;4.10;;;;;;;;;;5059463;28;20090;-65
2023/02/04 11:37:39;;;;;;;10.48;4.30;;;;;;;;;;5091971;28;20488;-66
2023/02/04 11:40:34;;;;;;;7.63;4.20;;;;;;;;;;5043212;28;20060;-65
2023/02/04 11:43:15;;;;;;;7.20;3.60;;;;;;;;;;5091768;28;20048;-65
2023/02/04 11:45:45;;;;;;;9.55;4.53;;;;;;;;;;5098898;28;20052;-65
2023/02/04 11:48:19;;;;;;;10.43;5.05;;;;;;;;;;5045011;28;20040;-65
2023/02/04 11:51:00;;;;;;;10.52;4.50;;;;;;;;;;5114286;28;20055;-65
2023/02/04 11:53:31;;;;;;;8.07;4.43;;;;;;;;;;5114398;28;20391;-65
2023/02/04 11:56:02;;;;;;;7.72;4.47;;;;;;;;;;5061640;28;20048;-65
2023/02/04 11:58:32;;;;;;;8.10;4.22;;;;;;;;;;5114246;28;20039;-65
2023/02/04 12:01:07;;;;;;;7.72;4.13;;;;;;;;;;5046280;28;20054;-66
2023/02/04 12:03:46;;;;;;;11.88;4.38;;;;;;;;;;5080148;28;20062;-65
2023/02/04 12:06:26;;;;;;;8.77;4.65;;;;;;;;;;5061223;28;20483;-65
2023/02/04 12:09:24;;;;;;;9.05;4.45;;;;;;;;;;5113880;28;20050;-65
2023/02/04 12:12:00;;;;;;;7.78;4.55;;;;;;;;;;5070775;28;20053;-65
2023/02/04 12:14:36;;;;;;;8.63;4.35;;;;;;;;;;5054515;28;20056;-65
2023/02/04 12:17:19;;;;;;;9.23;4.88;;;;;;;;;;5054754;28;20411;-65
2023/02/04 12:19:49;;;;;;;8.60;4.63;;;;;;;;;;5070862;28;20052;-65
2023/02/04 12:22:21;;;;;;;7.53;4.35;;;;;;;;;;5070488;28;20052;-65
2023/02/04 12:24:52;;;;;;;8.07;4.00;;;;;;;;;;5070471;28;20102;-65
2023/02/04 12:27:21;;;;;;;6.80;3.75;;;;;;;;;;5020856;28;20063;-65
2023/02/04 12:29:52;;;;;;;6.82;3.63;;;;;;;;;;5070789;28;20156;-65
2023/02/04 12:32:22;;;;;;;7.68;3.75;;;;;;;;;;5050249;28;20479;-65
2023/02/04 12:34:52;;;;;;;8.27;3.88;;;;;;;;;;5018010;28;20052;-64
2023/02/04 12:37:22;;;;;;;9.55;4.10;;;;;;;;;;5030779;28;20061;-65
2023/02/04 12:39:52;;;;;;;8.57;3.90;;;;;;;;;;5033328;28;20088;-65
2023/02/04 12:42:22;;;;;;;7.40;3.72;;;;;;;;;;5050024;28;20056;-65
2023/02/04 12:44:52;;;;;;;7.75;4.00;;;;;;;;;;5033558;28;20060;-65
2023/02/04 12:47:22;;;;;;;30.00;14.52;;;;;;;;;;5049997;28;20052;-65
2023/02/04 12:49:52;;;;;;;9.35;6.25;;;;;;;;;;5045413;28;20428;-64
2023/02/04 12:52:22;;;;;;;8.55;5.13;;;;;;;;;;5020807;28;20067;-65
2023/02/04 12:54:52;;;;;;;9.82;4.80;;;;;;;;;;5036812;28;20056;-65
2023/02/04 12:57:22;;;;;;;10.27;6.68;;;;;;;;;;5052856;28;20064;-64
2023/02/04 12:59:54;;;;;;;10.13;5.45;;;;;;;;;;5052881;28;20068;-65
2023/02/04 13:02:24;;;;;;;;;;;;;;;;;;5036985;28;20052;-68
2023/02/04 13:04:55;;;;;;;10.23;4.85;;;;;;;;;;5019806;28;19920;-65
2023/02/04 13:07:25;;;;;;;9.77;5.35;;;;;;;;;;5069513;28;20047;-65
2023/02/04 13:09:56;;;;;;;12.23;6.32;;;;;;;;;;5066316;28;20054;-65
2023/02/04 13:12:26;;;;;;;8.90;4.47;;;;;;;;;;5112608;28;20491;-65
2023/02/04 13:14:57;;;;;;;23.23;11.07;;;;;;;;;;5112756;28;20043;-65
2023/02/04 13:17:27;;;;;;;9.88;5.15;;;;;;;;;;5112235;28;20383;-65
2023/02/04 13:19:57;;;;;;;7.82;4.20;;;;;;;;;;5077198;28;20051;-65
2023/02/04 13:22:27;;;;;;;9.23;5.13;;;;;;;;;;5112590;28;20617;-65
2023/02/04 13:24:57;;;;;;;9.80;3.40;;;;;;;;;;5026210;28;20054;-65
2023/02/04 13:27:28;;;;;;;5.50;2.72;;;;;;;;;;5112591;28;20040;-66
2023/02/04 13:29:58;;;;;;;5.72;3.22;;;;;;;;;;5059640;28;20101;-67
2023/02/04 13:32:28;;;;;;;8.48;2.92;;;;;;;;;;5059778;28;20492;-66
2023/02/04 13:34:58;;;;;;;7.25;3.15;;;;;;;;;;5059369;28;20059;-65
2023/02/04 13:37:28;;;;;;;4.68;2.38;;;;;;;;;;5076528;28;20066;-65
2023/02/04 13:39:58;;;;;;;4.07;2.28;;;;;;;;;;5076366;28;20062;-65
2023/02/04 13:42:28;;;;;;;4.45;2.30;;;;;;;;;;5042645;28;20054;-66
2023/02/04 13:44:59;;;;;;;8.25;2.20;;;;;;;;;;5093218;28;20597;-66
2023/02/04 13:47:29;;;;;;;6.30;2.58;;;;;;;;;;5076894;28;20407;-67
2023/02/04 13:49:59;;;;;;;5.82;3.10;;;;;;;;;;5111964;28;20048;-65
2023/02/04 13:52:29;;;;;;;4.68;2.03;;;;;;;;;;5112561;28;20070;-67
2023/02/04 13:54:59;;;;;;;3.90;2.20;;;;;;;;;;5112089;28;20047;-66
2023/02/04 13:57:31;;;;;;;4.50;2.33;;;;;;;;;;5089098;28;20511;-66
2023/02/04 14:00:01;;;;;;;3.30;2.10;;;;;;;;;;5039255;28;20060;-66
2023/02/04 14:02:39;;;;;;;4.03;1.85;;;;;;;;;;5058101;28;20052;-67
2023/02/04 14:05:09;;;;;;;3.17;1.73;;;;;;;;;;5072591;28;20387;-67
2023/02/04 14:07:39;;;;;;;5.05;1.95;;;;;;;;;;5089228;28;20056;-66
2023/02/04 14:10:09;;;;;;;3.17;1.80;;;;;;;;;;5089116;28;20050;-67
2023/02/04 14:12:40;;;;;;;5.70;2.38;;;;;;;;;;5056408;28;20052;-67
2023/02/04 14:15:10;;;;;;;3.08;1.70;;;;;;;;;;5038825;28;20056;-66
2023/02/04 14:17:40;;;;;;;3.70;1.90;;;;;;;;;;5072039;28;20048;-66
2023/02/04 14:20:11;;;;;;;2.88;2.00;;;;;;;;;;5032029;28;20720;-68
2023/02/04 14:22:41;;;;;;;2.05;1.20;;;;;;;;;;5015430;28;20049;-68
2023/02/04 14:25:11;;;;;;;3.28;1.35;;;;;;;;;;5048374;28;20076;-67
2023/02/04 14:27:41;;;;;;;3.75;1.90;;;;;;;;;;5048576;28;20516;-71
2023/02/04 14:30:22;;;;;;;2.75;1.60;;;;;;;;;;5044223;28;20052;-68
2023/02/04 14:32:53;;;;;;;3.30;1.70;;;;;;;;;;5005521;28;20790;-68
2023/02/04 14:35:23;;;;;;;4.28;1.80;;;;;;;;;;5055141;28;20064;-67
2023/02/04 14:37:54;;;;;;;2.15;1.40;;;;;;;;;;5068211;28;20066;-68
2023/02/04 14:40:23;;;;;;;4.18;1.42;;;;;;;;;;5068004;28;20055;-68
2023/02/04 14:42:53;;;;;;;2.20;1.10;;;;;;;;;;5049064;28;20048;-71
2023/02/04 14:45:23;;;;;;;2.55;1.40;;;;;;;;;;5068315;28;20090;-66
2023/02/04 14:47:59;;;;;;;2.80;1.10;;;;;;;;;;5068515;28;20419;-66
2023/02/04 14:50:29;;;;;;;2.85;1.40;;;;;;;;;;5071669;28;20123;-67
2023/02/04 14:53:00;;;;;;;3.30;1.27;;;;;;;;;;5040043;28;20068;-69
2023/02/04 14:55:30;;;;;;;2.13;1.00;;;;;;;;;;5040007;28;20059;-66
2023/02/04 14:58:00;;;;;;;2.30;1.00;;;;;;;;;;5062356;28;20054;-71
2023/02/04 15:00:30;;;;;;;1.70;1.00;;;;;;;;;;5115192;28;20039;-68
2023/02/04 15:03:01;;;;;;;2.55;1.40;;;;;;;;;;5058471;28;20056;-67
2023/02/04 15:05:30;;;;;;;1.67;1.20;;;;;;;;;;5094855;28;20407;-70
2023/02/04 15:08:00;;;;;;;1.98;0.95;;;;;;;;;;5094769;28;20066;-68